createdAt,value
2018-06-18T00:02:02.656Z,17.50
2018-06-18T00:04:29.840Z,17.50
2018-06-18T00:06:57.009Z,17.50
2018-06-18T00:09:24.232Z,17.60
2018-06-18T00:11:51.391Z,17.70
2018-06-18T00:14:18.580Z,17.70
2018-06-18T00:16:45.798Z,17.80
2018-06-18T00:19:12.954Z,17.80
2018-06-18T00:21:40.103Z,17.70
2018-06-18T00:24:07.269Z,17.60
2018-06-18T00:26:34.419Z,17.60
2018-06-18T00:29:01.646Z,17.70
2018-06-18T00:31:28.800Z,17.70
2018-06-18T00:33:55.983Z,17.70
2018-06-18T00:36:23.146Z,17.60
2018-06-18T00:38:50.315Z,17.60
2018-06-18T00:41:17.464Z,17.60
2018-06-18T00:43:44.640Z,17.50
2018-06-18T00:46:11.880Z,17.50
2018-06-18T00:48:39.023Z,17.60
2018-06-18T00:51:06.212Z,17.60
2018-06-18T00:53:33.368Z,17.50
2018-06-18T00:56:07.628Z,17.50
2018-06-18T00:58:34.800Z,17.60
2018-06-18T01:01:02.000Z,17.60
2018-06-18T01:03:29.422Z,17.60
2018-06-18T01:05:56.595Z,17.50
2018-06-18T01:08:23.773Z,17.60
2018-06-18T01:10:50.934Z,17.60
2018-06-18T01:13:18.140Z,17.60
2018-06-18T01:15:45.451Z,17.50
2018-06-18T01:18:12.594Z,17.60
2018-06-18T01:20:39.751Z,17.70
2018-06-18T01:24:22.260Z,17.70
2018-06-18T01:26:49.422Z,17.70
2018-06-18T01:29:16.583Z,17.80
2018-06-18T01:31:43.755Z,17.90
2018-06-18T01:34:22.063Z,17.80
2018-06-18T01:36:49.263Z,17.80
2018-06-18T01:39:16.419Z,17.80
2018-06-18T01:41:43.920Z,17.80
2018-06-18T01:44:11.100Z,17.80
2018-06-18T01:46:38.308Z,17.80
2018-06-18T01:49:05.471Z,17.80
2018-06-18T01:51:32.635Z,17.80
2018-06-18T01:53:59.776Z,17.80
2018-06-18T01:56:26.958Z,17.80
2018-06-18T01:58:54.132Z,17.80
2018-06-18T02:01:21.279Z,17.70
2018-06-18T02:03:48.442Z,17.70
2018-06-18T02:06:15.631Z,17.70
2018-06-18T02:08:42.796Z,17.60
2018-06-18T02:11:09.966Z,17.60
2018-06-18T02:13:37.132Z,17.60
2018-06-18T02:16:04.335Z,17.60
2018-06-18T02:18:31.500Z,17.50
2018-06-18T02:20:58.668Z,17.40
2018-06-18T02:23:25.840Z,17.30
2018-06-18T02:25:53.003Z,17.30
2018-06-18T02:28:26.025Z,17.30
2018-06-18T02:30:58.800Z,17.40
2018-06-18T02:33:31.862Z,17.50
2018-06-18T02:36:04.864Z,17.50
2018-06-18T02:38:36.615Z,17.40
2018-06-18T02:41:04.223Z,17.30
2018-06-18T02:43:31.399Z,17.20
2018-06-18T02:45:58.577Z,17.20
2018-06-18T02:48:25.740Z,17.20
2018-06-18T02:50:52.908Z,17.10
2018-06-18T02:53:20.075Z,17.10
2018-06-18T02:55:48.840Z,17.10
2018-06-18T02:58:16.058Z,17.20
2018-06-18T03:00:43.224Z,17.20
2018-06-18T03:03:10.423Z,17.20
2018-06-18T03:05:37.578Z,17.10
2018-06-18T03:08:04.804Z,17.00
2018-06-18T03:10:31.975Z,16.90
2018-06-18T03:12:59.148Z,16.80
2018-06-18T03:15:26.312Z,16.80
2018-06-18T03:20:26.272Z,16.90
2018-06-18T03:22:59.247Z,16.90
2018-06-18T03:25:32.277Z,16.80
2018-06-18T03:28:05.135Z,16.80
2018-06-18T03:30:32.356Z,16.70
2018-06-18T03:32:59.524Z,16.70
2018-06-18T03:35:26.695Z,16.70
2018-06-18T03:37:54.860Z,16.80
2018-06-18T03:40:22.025Z,16.80
2018-06-18T03:42:49.188Z,16.70
2018-06-18T03:45:21.795Z,16.80
2018-06-18T03:47:48.948Z,16.80
2018-06-18T03:50:16.148Z,16.90
2018-06-18T03:52:43.296Z,16.90
2018-06-18T03:55:15.571Z,17.00
2018-06-18T03:57:42.739Z,16.90
2018-06-18T04:00:10.076Z,16.90
2018-06-18T04:02:53.052Z,16.80
2018-06-18T04:05:25.960Z,16.80
2018-06-18T04:07:57.302Z,16.90
2018-06-18T04:11:34.552Z,16.90
2018-06-18T04:14:01.749Z,16.90
2018-06-18T04:16:28.971Z,16.90
2018-06-18T04:18:56.124Z,16.90
2018-06-18T04:21:23.291Z,16.90
2018-06-18T04:26:17.656Z,17.00
2018-06-18T04:28:44.807Z,17.10
2018-06-18T04:31:11.972Z,17.10
2018-06-18T04:33:46.200Z,17.30
2018-06-18T04:36:13.367Z,17.30
2018-06-18T04:38:40.515Z,17.30
2018-06-18T04:41:07.680Z,17.30
2018-06-18T04:43:40.655Z,17.20
2018-06-18T04:46:13.663Z,17.30
2018-06-18T04:48:46.640Z,17.30
2018-06-18T04:51:13.896Z,17.30
2018-06-18T04:53:41.047Z,17.30
2018-06-18T04:56:08.207Z,17.30
2018-06-18T04:58:35.379Z,17.30
2018-06-18T05:01:11.616Z,17.20
2018-06-18T05:03:38.771Z,17.10
2018-06-18T05:06:05.967Z,17.10
2018-06-18T05:10:43.895Z,17.00
2018-06-18T05:13:11.040Z,16.90
2018-06-18T05:15:39.428Z,17.00
2018-06-18T05:18:07.011Z,17.00
2018-06-18T05:20:34.338Z,17.10
2018-06-18T05:23:01.483Z,17.10
2018-06-18T05:25:29.927Z,17.10
2018-06-18T05:27:57.087Z,17.10
2018-06-18T05:30:27.860Z,17.10
2018-06-18T05:32:55.200Z,17.10
2018-06-18T05:35:22.380Z,17.20
2018-06-18T05:38:12.929Z,17.20
2018-06-18T05:40:40.088Z,17.20
2018-06-18T05:43:07.250Z,17.20
2018-06-18T05:45:34.404Z,17.40
2018-06-18T05:48:01.595Z,17.40
2018-06-18T05:50:28.799Z,17.40
2018-06-18T05:52:55.913Z,17.50
2018-06-18T05:57:50.339Z,17.60
2018-06-18T06:00:17.756Z,17.70
2018-06-18T06:02:45.293Z,17.70
2018-06-18T06:05:12.599Z,17.80
2018-06-18T06:07:39.908Z,17.80
2018-06-18T06:10:07.156Z,17.90
2018-06-18T06:12:34.328Z,17.90
2018-06-18T06:15:01.526Z,17.90
2018-06-18T06:17:28.739Z,17.80
2018-06-18T06:19:55.920Z,17.90
2018-06-18T06:22:23.113Z,18.00
2018-06-18T06:24:50.297Z,18.10
2018-06-18T06:27:17.493Z,18.20
2018-06-18T06:29:44.651Z,18.20
2018-06-18T06:32:11.916Z,18.30
2018-06-18T06:34:40.195Z,18.40
2018-06-18T06:37:07.408Z,18.50
2018-06-18T06:39:34.567Z,18.60
2018-06-18T06:42:07.503Z,18.80
2018-06-18T06:44:34.645Z,18.80
2018-06-18T06:47:01.817Z,18.80
2018-06-18T06:49:29.115Z,18.80
2018-06-18T06:51:56.264Z,18.80
2018-06-18T06:54:23.428Z,18.80
2018-06-18T06:56:50.571Z,18.90
2018-06-18T06:59:17.849Z,18.90
2018-06-18T07:01:45.004Z,19.10
2018-06-18T07:04:12.283Z,19.20
2018-06-18T07:06:39.459Z,19.30
2018-06-18T07:09:08.631Z,19.30
2018-06-18T07:11:36.000Z,19.60
2018-06-18T07:14:03.284Z,19.60
2018-06-18T07:16:30.450Z,19.80
2018-06-18T07:18:57.624Z,20.30
2018-06-18T07:21:24.863Z,20.80
2018-06-18T07:26:25.907Z,20.80
2018-06-18T07:28:53.074Z,20.90
2018-06-18T07:31:20.219Z,21.20
2018-06-18T07:33:47.395Z,21.90
2018-06-18T07:36:14.564Z,22.50
2018-06-18T07:38:41.748Z,23.20
2018-06-18T07:41:08.932Z,23.50
2018-06-18T07:43:36.104Z,23.40
2018-06-18T07:46:03.256Z,23.80
2018-06-18T07:48:30.427Z,24.10
2018-06-18T07:50:57.627Z,24.70
2018-06-18T07:53:24.775Z,25.20
2018-06-18T07:55:51.939Z,25.20
2018-06-18T07:58:19.079Z,25.00
2018-06-18T08:00:46.355Z,24.40
2018-06-18T08:03:13.511Z,23.90
2018-06-18T08:05:40.847Z,23.50
2018-06-18T08:08:08.000Z,23.60
2018-06-18T08:10:35.194Z,23.60
2018-06-18T08:15:29.525Z,23.70
2018-06-18T08:17:56.676Z,23.80
2018-06-18T08:22:51.007Z,23.20
2018-06-18T08:25:18.173Z,22.80
2018-06-18T08:27:45.344Z,22.70
2018-06-18T08:30:12.504Z,23.10
2018-06-18T08:32:39.663Z,23.80
2018-06-18T08:35:06.840Z,24.40
2018-06-18T08:37:33.988Z,24.50
2018-06-18T08:40:01.308Z,24.20
2018-06-18T08:42:28.503Z,23.90
2018-06-18T08:44:55.663Z,24.00
2018-06-18T08:47:22.825Z,23.80
2018-06-18T08:49:55.739Z,23.50
2018-06-18T08:52:28.788Z,23.00
2018-06-18T08:55:01.864Z,22.60
2018-06-18T08:57:34.940Z,23.00
2018-06-18T09:00:07.852Z,23.70
2018-06-18T09:02:35.012Z,24.00
2018-06-18T09:05:07.856Z,24.00
2018-06-18T09:07:40.680Z,23.70
2018-06-18T09:10:07.876Z,23.70
2018-06-18T09:12:35.255Z,24.00
2018-06-18T09:15:02.440Z,24.10
2018-06-18T09:17:29.697Z,24.40
2018-06-18T09:19:56.871Z,24.90
2018-06-18T09:22:24.032Z,25.30
2018-06-18T09:24:51.196Z,25.40
2018-06-18T09:27:18.388Z,25.30
2018-06-18T09:29:51.235Z,25.30
2018-06-18T09:32:18.457Z,25.70
2018-06-18T09:34:45.588Z,26.30
2018-06-18T09:37:12.756Z,26.80
2018-06-18T09:39:39.920Z,26.50
2018-06-18T09:42:07.100Z,25.80
2018-06-18T09:47:01.428Z,24.80
2018-06-18T09:49:34.236Z,24.90
2018-06-18T09:52:07.339Z,25.30
2018-06-18T09:54:40.295Z,25.60
2018-06-18T09:57:29.332Z,25.80
2018-06-18T10:00:13.635Z,26.00
2018-06-18T10:02:40.832Z,26.00
2018-06-18T10:05:08.031Z,25.70
2018-06-18T10:07:35.340Z,25.70
2018-06-18T10:10:02.528Z,25.90
2018-06-18T10:12:29.708Z,25.70
2018-06-18T10:14:56.884Z,25.50
2018-06-18T10:17:24.048Z,25.40
2018-06-18T10:19:51.812Z,25.30
2018-06-18T10:22:18.985Z,24.90
2018-06-18T10:24:46.139Z,24.70
2018-06-18T10:27:13.545Z,25.10
2018-06-18T10:29:40.691Z,25.40
2018-06-18T10:32:13.663Z,25.50
2018-06-18T10:34:46.487Z,25.20
2018-06-18T10:37:19.364Z,24.80
2018-06-18T10:39:52.319Z,24.30
2018-06-18T10:42:25.167Z,24.70
2018-06-18T10:44:52.327Z,25.40
2018-06-18T10:47:19.472Z,25.70
2018-06-18T10:49:46.636Z,25.90
2018-06-18T10:52:13.793Z,26.10
2018-06-18T10:54:40.955Z,26.10
2018-06-18T10:57:08.160Z,25.80
2018-06-18T10:59:35.280Z,25.30
2018-06-18T11:02:02.432Z,24.80
2018-06-18T11:04:30.485Z,25.00
2018-06-18T11:06:57.856Z,25.50
2018-06-18T11:09:25.011Z,25.80
2018-06-18T11:11:52.208Z,25.50
2018-06-18T11:14:19.391Z,25.00
2018-06-18T11:16:52.601Z,24.70
2018-06-18T11:19:25.316Z,24.70
2018-06-18T11:21:58.403Z,24.70
2018-06-18T11:24:31.200Z,24.70
2018-06-18T11:26:58.745Z,24.50
2018-06-18T11:29:25.816Z,24.50
2018-06-18T11:31:53.004Z,24.30
2018-06-18T11:34:20.156Z,24.20
2018-06-18T11:36:47.378Z,24.30
2018-06-18T11:39:14.610Z,24.30
2018-06-18T11:41:41.777Z,24.20
2018-06-18T11:44:08.915Z,24.00
2018-06-18T11:46:36.083Z,23.90
2018-06-18T11:49:03.292Z,23.80
2018-06-18T11:51:30.823Z,23.90
2018-06-18T11:53:57.996Z,23.90
2018-06-18T11:56:25.203Z,24.00
2018-06-18T11:58:58.136Z,23.80
2018-06-18T12:01:31.046Z,23.80
2018-06-18T12:04:04.063Z,23.60
2018-06-18T12:06:37.040Z,23.60
2018-06-18T12:09:12.448Z,23.70
2018-06-18T12:11:39.827Z,23.70
2018-06-18T12:14:07.016Z,23.60
2018-06-18T12:16:35.483Z,23.50
2018-06-18T12:19:03.208Z,23.50
2018-06-18T12:21:30.403Z,23.50
2018-06-18T12:23:57.575Z,23.60
2018-06-18T12:26:24.759Z,23.70
2018-06-18T12:28:51.920Z,23.70
2018-06-18T12:31:19.148Z,23.70
2018-06-18T12:33:46.292Z,23.80
2018-06-18T12:36:13.463Z,23.80
2018-06-18T12:38:40.624Z,23.90
2018-06-18T12:41:08.367Z,23.90
2018-06-18T12:43:37.595Z,24.00
2018-06-18T12:46:10.491Z,24.20
2018-06-18T12:49:44.215Z,24.50
2018-06-18T12:52:17.083Z,24.80
2018-06-18T12:55:50.707Z,25.00
2018-06-18T12:58:17.874Z,25.00
2018-06-18T13:00:45.064Z,25.30
2018-06-18T13:03:13.742Z,25.60
2018-06-18T13:05:40.924Z,25.70
2018-06-18T13:08:08.118Z,25.70
2018-06-18T13:10:35.395Z,25.60
2018-06-18T13:13:02.576Z,25.60
2018-06-18T13:15:29.923Z,25.60
2018-06-18T13:17:57.181Z,25.40
2018-06-18T13:20:24.461Z,25.40
2018-06-18T13:22:51.577Z,25.50
2018-06-18T13:25:18.836Z,25.30
2018-06-18T13:27:51.699Z,25.30
2018-06-18T13:30:19.140Z,25.30
2018-06-18T13:32:46.303Z,25.30
2018-06-18T13:35:13.515Z,25.10
2018-06-18T13:37:46.492Z,24.80
2018-06-18T13:40:19.456Z,24.50
2018-06-18T13:42:52.423Z,24.40
2018-06-18T13:45:25.424Z,24.20
2018-06-18T13:47:58.356Z,24.10
2018-06-18T13:50:25.539Z,24.10
2018-06-18T13:52:52.750Z,24.10
2018-06-18T13:55:19.897Z,24.20
2018-06-18T13:57:47.778Z,24.50
2018-06-18T14:00:14.948Z,24.60
2018-06-18T14:02:42.116Z,24.60
2018-06-18T14:05:09.307Z,24.60
2018-06-18T14:10:10.488Z,24.40
2018-06-18T14:12:37.665Z,24.40
2018-06-18T14:15:04.868Z,24.30
2018-06-18T14:17:32.036Z,24.30
2018-06-18T14:20:04.889Z,24.10
2018-06-18T14:22:32.156Z,24.10
2018-06-18T14:24:59.592Z,24.20
2018-06-18T14:27:26.771Z,24.20
2018-06-18T14:29:59.676Z,24.10
2018-06-18T14:32:32.713Z,24.30
2018-06-18T14:35:05.615Z,24.40
2018-06-18T14:37:40.611Z,24.50
2018-06-18T14:42:34.529Z,24.50
2018-06-18T14:45:01.760Z,24.70
2018-06-18T14:47:28.975Z,24.80
2018-06-18T14:49:56.113Z,24.70
2018-06-18T14:52:23.445Z,24.70
2018-06-18T14:54:50.557Z,24.50
2018-06-18T14:57:17.820Z,24.50
2018-06-18T14:59:54.701Z,24.50
2018-06-18T15:02:21.884Z,24.50
2018-06-18T15:04:49.135Z,24.40
2018-06-18T15:07:16.466Z,24.40
2018-06-18T15:09:43.636Z,24.40
2018-06-18T15:12:11.850Z,24.30
2018-06-18T15:14:39.079Z,24.30
2018-06-18T15:17:06.274Z,24.20
2018-06-18T15:19:33.424Z,24.30
2018-06-18T15:22:00.695Z,24.30
2018-06-18T15:24:50.259Z,24.30
2018-06-18T15:27:17.806Z,24.20
2018-06-18T15:29:44.903Z,24.30
2018-06-18T15:32:12.149Z,24.30
2018-06-18T15:34:39.292Z,24.30
2018-06-18T15:37:06.516Z,24.20
2018-06-18T15:39:33.691Z,24.10
2018-06-18T15:42:00.927Z,24.10
2018-06-18T15:44:28.082Z,24.00
2018-06-18T15:46:55.463Z,23.90
2018-06-18T15:49:22.615Z,23.90
2018-06-18T15:51:49.855Z,24.00
2018-06-18T15:54:17.020Z,23.90
2018-06-18T15:56:44.251Z,23.80
2018-06-18T15:59:11.479Z,23.80
2018-06-18T16:01:38.827Z,23.90
2018-06-18T16:04:06.123Z,24.00
2018-06-18T16:06:33.407Z,23.90
2018-06-18T16:09:00.614Z,23.90
2018-06-18T16:11:28.117Z,23.90
2018-06-18T16:16:28.151Z,24.00
2018-06-18T16:18:55.423Z,24.10
2018-06-18T16:21:22.588Z,24.00
2018-06-18T16:23:49.747Z,23.80
2018-06-18T16:26:16.920Z,23.80
2018-06-18T16:28:44.110Z,23.80
2018-06-18T16:33:38.586Z,23.80
2018-06-18T16:36:05.820Z,23.80
2018-06-18T16:38:33.043Z,23.70
2018-06-18T16:43:27.444Z,23.80
2018-06-18T16:45:54.591Z,23.70
2018-06-18T16:48:21.808Z,23.70
2018-06-18T16:50:48.932Z,23.70
2018-06-18T16:53:16.133Z,23.60
2018-06-18T16:58:11.040Z,23.60
2018-06-18T17:00:38.216Z,23.60
2018-06-18T17:03:05.426Z,23.60
2018-06-18T17:05:32.667Z,23.50
2018-06-18T17:07:59.844Z,23.50
2018-06-18T17:10:26.988Z,23.50
2018-06-18T17:12:54.147Z,23.50
2018-06-18T17:15:21.432Z,23.50
2018-06-18T17:17:48.843Z,23.40
2018-06-18T17:20:16.595Z,23.40
2018-06-18T17:22:43.951Z,23.30
2018-06-18T17:25:11.748Z,23.40
2018-06-18T17:27:38.939Z,23.40
2018-06-18T17:30:06.117Z,23.30
2018-06-18T17:32:33.432Z,23.20
2018-06-18T17:35:00.619Z,23.20
2018-06-18T17:37:27.873Z,23.10
2018-06-18T17:39:55.036Z,23.10
2018-06-18T17:42:22.207Z,23.20
2018-06-18T17:44:49.372Z,23.20
2018-06-18T17:47:17.697Z,23.10
2018-06-18T17:49:44.977Z,23.10
2018-06-18T17:52:12.215Z,23.10
2018-06-18T17:54:39.444Z,23.00
2018-06-18T17:57:07.316Z,23.10
2018-06-18T17:59:34.517Z,23.10
2018-06-18T18:02:01.668Z,23.00
2018-06-18T18:04:29.003Z,22.90
2018-06-18T18:06:56.283Z,22.80
2018-06-18T18:09:23.458Z,22.80
2018-06-18T18:11:50.645Z,22.90
2018-06-18T18:14:17.808Z,22.80
2018-06-18T18:16:45.003Z,22.80
2018-06-18T18:19:12.211Z,22.80
2018-06-18T18:21:39.471Z,22.80
2018-06-18T18:24:06.671Z,22.80
2018-06-18T18:26:33.887Z,22.80
2018-06-18T18:29:01.060Z,22.70
2018-06-18T18:31:28.240Z,22.70
2018-06-18T18:33:55.448Z,22.60
2018-06-18T18:36:22.611Z,22.70
2018-06-18T18:38:49.788Z,22.70
2018-06-18T18:41:16.943Z,22.60
2018-06-18T18:43:44.139Z,22.70
2018-06-18T18:46:11.321Z,22.80
2018-06-18T18:48:38.555Z,22.70
2018-06-18T18:51:05.781Z,22.70
2018-06-18T18:53:32.993Z,22.70
2018-06-18T18:56:11.880Z,22.60
2018-06-18T18:59:44.711Z,22.60
2018-06-18T19:02:12.013Z,22.50
2018-06-18T19:04:56.332Z,22.40
2018-06-18T19:07:28.808Z,22.40
2018-06-18T19:10:24.827Z,22.40
2018-06-18T19:12:54.036Z,22.40
2018-06-18T19:15:21.639Z,22.30
2018-06-18T19:17:48.847Z,22.30
2018-06-18T19:20:19.251Z,22.20
2018-06-18T19:22:46.440Z,22.30
2018-06-18T19:25:13.672Z,22.30
2018-06-18T19:27:40.815Z,22.20
2018-06-18T19:30:08.812Z,22.20
2018-06-18T19:32:36.060Z,22.20
2018-06-18T19:35:03.259Z,22.20
2018-06-18T19:37:30.432Z,22.10
2018-06-18T19:39:57.659Z,22.10
2018-06-18T19:42:24.819Z,22.00
2018-06-18T19:44:51.955Z,22.00
2018-06-18T19:47:23.347Z,21.90
2018-06-18T19:49:50.620Z,21.90
2018-06-18T19:52:18.079Z,21.90
2018-06-18T19:54:48.174Z,22.00
2018-06-18T19:57:15.451Z,22.00
2018-06-18T19:59:42.624Z,21.90
2018-06-18T20:02:09.817Z,21.90
2018-06-18T20:04:37.000Z,21.90
2018-06-18T20:09:31.379Z,21.80
2018-06-18T20:11:58.561Z,21.80
2018-06-18T20:14:25.853Z,21.70
2018-06-18T20:16:53.033Z,21.70
2018-06-18T20:19:20.199Z,21.60
2018-06-18T20:21:47.776Z,21.70
2018-06-18T20:24:14.932Z,21.70
2018-06-18T20:26:42.112Z,21.70
2018-06-18T20:29:09.261Z,21.60
2018-06-18T20:31:36.472Z,21.60
2018-06-18T20:34:03.648Z,21.60
2018-06-18T20:36:30.832Z,21.60
2018-06-18T20:38:57.984Z,21.60
2018-06-18T20:41:25.240Z,21.50
2018-06-18T20:44:04.552Z,21.60
2018-06-18T20:46:31.761Z,21.50
2018-06-18T20:48:58.915Z,21.50
2018-06-18T20:51:26.248Z,21.40
2018-06-18T20:53:53.391Z,21.30
2018-06-18T20:56:20.552Z,21.20
2018-06-18T20:58:47.879Z,21.10
2018-06-18T21:01:15.037Z,21.10
2018-06-18T21:03:42.208Z,21.00
2018-06-18T21:06:09.364Z,20.90
2018-06-18T21:08:36.525Z,20.90
2018-06-18T21:11:03.813Z,20.80
2018-06-18T21:16:04.968Z,20.70
2018-06-18T21:18:32.163Z,20.60
2018-06-18T21:20:59.312Z,20.50
2018-06-18T21:23:26.488Z,20.40
2018-06-18T21:25:53.635Z,20.40
2018-06-18T21:28:20.829Z,20.40
2018-06-18T21:30:48.205Z,20.30
2018-06-18T21:33:15.368Z,20.30
2018-06-18T21:35:42.527Z,20.30
2018-06-18T21:38:09.718Z,20.30
2018-06-18T21:40:36.875Z,20.20
2018-06-18T21:43:04.295Z,20.20
2018-06-18T21:45:31.456Z,20.20
2018-06-18T21:47:58.790Z,20.10
2018-06-18T21:50:25.986Z,20.10
2018-06-18T21:52:53.248Z,20.00
2018-06-18T21:55:20.409Z,20.00
2018-06-18T21:57:47.611Z,20.00
2018-06-18T22:00:21.401Z,19.90
2018-06-18T22:02:48.891Z,19.80
2018-06-18T22:05:16.080Z,19.70
2018-06-18T22:07:44.029Z,19.60
2018-06-18T22:10:11.523Z,19.60
2018-06-18T22:12:38.716Z,19.60
2018-06-18T22:15:06.572Z,19.50
2018-06-18T22:17:33.716Z,19.50
2018-06-18T22:20:00.916Z,19.50
2018-06-18T22:22:28.088Z,19.50
2018-06-18T22:24:55.285Z,19.40
2018-06-18T22:27:22.507Z,19.30
2018-06-18T22:29:49.676Z,19.40
2018-06-18T22:32:16.843Z,19.30
2018-06-18T22:34:44.048Z,19.30
2018-06-18T22:37:11.235Z,19.30
2018-06-18T22:39:38.499Z,19.20
2018-06-18T22:44:39.656Z,19.30
2018-06-18T22:47:07.215Z,19.30
2018-06-18T22:49:34.411Z,19.20
2018-06-18T22:52:01.593Z,19.30
2018-06-18T22:54:28.785Z,19.30
2018-06-18T22:56:55.955Z,19.20
2018-06-18T22:59:23.192Z,19.10
2018-06-18T23:01:50.567Z,19.00
2018-06-18T23:04:17.727Z,19.00
2018-06-18T23:06:44.920Z,19.00
2018-06-18T23:09:12.109Z,19.00
2018-06-18T23:11:39.444Z,19.00
2018-06-18T23:14:09.392Z,19.00
2018-06-18T23:16:36.751Z,19.00
2018-06-18T23:19:03.984Z,19.10
2018-06-18T23:21:31.164Z,19.10
2018-06-18T23:23:58.348Z,19.00
2018-06-18T23:26:25.547Z,19.00
2018-06-18T23:31:21.279Z,19.00
2018-06-18T23:33:48.446Z,19.00
2018-06-18T23:36:15.632Z,18.90
2018-06-18T23:38:42.820Z,18.90
2018-06-18T23:41:10.035Z,18.80
2018-06-18T23:43:37.200Z,18.80
2018-06-18T23:46:04.603Z,18.80
2018-06-18T23:48:31.820Z,18.80
2018-06-18T23:50:59.032Z,18.70
2018-06-18T23:53:26.219Z,18.70
2018-06-18T23:55:53.428Z,18.70
